sensor_id;sensor_type;location;lat;lon;timestamp;pressure;altitude;pressure_sealevel;temperature;humidity
2188;BME280;1100;52.014;8.540;2023-01-27T00:00:49;100859.38;;;0.26;95.18
2188;BME280;1100;52.014;8.540;2023-01-27T00:03:14;100866.47;;;0.27;95.12
2188;BME280;1100;52.014;8.540;2023-01-27T00:05:40;100867.22;;;0.27;95.43
2188;BME280;1100;52.014;8.540;2023-01-27T00:08:06;100867.34;;;0.31;95.32
2188;BME280;1100;52.014;8.540;2023-01-27T00:10:31;100865.06;;;0.33;95.34
2188;BME280;1100;52.014;8.540;2023-01-27T00:12:56;100862.69;;;0.31;95.21
2188;BME280;1100;52.014;8.540;2023-01-27T00:15:40;100863.09;;;0.33;95.59
2188;BME280;1100;52.014;8.540;2023-01-27T00:18:05;100864.38;;;0.36;95.24
2188;BME280;1100;52.014;8.540;2023-01-27T00:20:31;100865.59;;;0.39;95.32
2188;BME280;1100;52.014;8.540;2023-01-27T00:23:18;100856.69;;;0.42;95.22
2188;BME280;1100;52.014;8.540;2023-01-27T00:26:04;100860.56;;;0.41;95.38
2188;BME280;1100;52.014;8.540;2023-01-27T00:28:32;100853.94;;;0.42;95.42
2188;BME280;1100;52.014;8.540;2023-01-27T00:30:58;100852.03;;;0.42;95.34
2188;BME280;1100;52.014;8.540;2023-01-27T00:33:24;100852.09;;;0.46;95.58
2188;BME280;1100;52.014;8.540;2023-01-27T00:38:29;100857.31;;;0.51;95.35
2188;BME280;1100;52.014;8.540;2023-01-27T00:40:55;100853.44;;;0.52;95.28
2188;BME280;1100;52.014;8.540;2023-01-27T00:43:38;100851.03;;;0.51;95.36
2188;BME280;1100;52.014;8.540;2023-01-27T00:46:04;100858.91;;;0.52;95.39
2188;BME280;1100;52.014;8.540;2023-01-27T00:48:29;100856.97;;;0.53;95.47
2188;BME280;1100;52.014;8.540;2023-01-27T00:50:55;100853.88;;;0.54;95.60
2188;BME280;1100;52.014;8.540;2023-01-27T00:53:21;100853.53;;;0.56;95.56
2188;BME280;1100;52.014;8.540;2023-01-27T00:55:46;100855.47;;;0.55;95.54
2188;BME280;1100;52.014;8.540;2023-01-27T00:58:12;100853.88;;;0.54;95.51
2188;BME280;1100;52.014;8.540;2023-01-27T01:00:37;100858.19;;;0.55;95.51
2188;BME280;1100;52.014;8.540;2023-01-27T01:03:02;100859.81;;;0.56;95.54
2188;BME280;1100;52.014;8.540;2023-01-27T01:05:28;100854.34;;;0.56;95.53
2188;BME280;1100;52.014;8.540;2023-01-27T01:07:53;100857.50;;;0.58;95.35
2188;BME280;1100;52.014;8.540;2023-01-27T01:10:18;100853.97;;;0.58;95.38
2188;BME280;1100;52.014;8.540;2023-01-27T01:12:44;100853.19;;;0.57;95.28
2188;BME280;1100;52.014;8.540;2023-01-27T01:15:09;100854.75;;;0.58;95.73
2188;BME280;1100;52.014;8.540;2023-01-27T01:17:35;100857.94;;;0.60;95.73
2188;BME280;1100;52.014;8.540;2023-01-27T01:20:00;100855.22;;;0.60;95.52
2188;BME280;1100;52.014;8.540;2023-01-27T01:22:25;100855.66;;;0.63;95.43
2188;BME280;1100;52.014;8.540;2023-01-27T01:24:51;100859.63;;;0.65;95.43
2188;BME280;1100;52.014;8.540;2023-01-27T01:27:16;100862.03;;;0.67;95.47
2188;BME280;1100;52.014;8.540;2023-01-27T01:29:41;100872.25;;;0.70;95.54
2188;BME280;1100;52.014;8.540;2023-01-27T01:32:07;100869.53;;;0.70;95.62
2188;BME280;1100;52.014;8.540;2023-01-27T01:34:34;100867.25;;;0.72;95.77
2188;BME280;1100;52.014;8.540;2023-01-27T01:36:59;100873.50;;;0.72;95.40
2188;BME280;1100;52.014;8.540;2023-01-27T01:39:25;100875.00;;;0.70;95.36
2188;BME280;1100;52.014;8.540;2023-01-27T01:41:50;100869.88;;;0.68;95.41
2188;BME280;1100;52.014;8.540;2023-01-27T01:44:29;100875.81;;;0.70;95.48
2188;BME280;1100;52.014;8.540;2023-01-27T01:46:54;100871.09;;;0.71;95.72
2188;BME280;1100;52.014;8.540;2023-01-27T01:49:24;100866.34;;;0.68;95.61
2188;BME280;1100;52.014;8.540;2023-01-27T01:51:58;100871.81;;;0.68;95.34
2188;BME280;1100;52.014;8.540;2023-01-27T01:54:29;100867.50;;;0.67;95.67
2188;BME280;1100;52.014;8.540;2023-01-27T01:57:15;100864.75;;;0.67;95.73
2188;BME280;1100;52.014;8.540;2023-01-27T01:59:47;100863.16;;;0.66;95.66
2188;BME280;1100;52.014;8.540;2023-01-27T02:02:16;100864.41;;;0.68;95.63
2188;BME280;1100;52.014;8.540;2023-01-27T02:04:51;100860.09;;;0.67;95.56
2188;BME280;1100;52.014;8.540;2023-01-27T02:07:24;100856.19;;;0.68;95.40
2188;BME280;1100;52.014;8.540;2023-01-27T02:09:55;100872.25;;;0.70;95.38
2188;BME280;1100;52.014;8.540;2023-01-27T02:12:20;100865.28;;;0.72;95.40
2188;BME280;1100;52.014;8.540;2023-01-27T02:14:46;100863.34;;;0.73;95.63
2188;BME280;1100;52.014;8.540;2023-01-27T02:17:12;100863.34;;;0.73;95.64
2188;BME280;1100;52.014;8.540;2023-01-27T02:22:48;100868.13;;;0.76;95.38
2188;BME280;1100;52.014;8.540;2023-01-27T02:25:27;100865.38;;;0.76;95.63
2188;BME280;1100;52.014;8.540;2023-01-27T02:27:53;100861.47;;;0.77;95.80
2188;BME280;1100;52.014;8.540;2023-01-27T02:30:18;100866.97;;;0.77;95.45
2188;BME280;1100;52.014;8.540;2023-01-27T02:32:44;100860.72;;;0.77;95.39
2188;BME280;1100;52.014;8.540;2023-01-27T02:35:14;100863.78;;;0.75;95.71
2188;BME280;1100;52.014;8.540;2023-01-27T02:37:42;100859.91;;;0.76;95.40
2188;BME280;1100;52.014;8.540;2023-01-27T02:40:08;100867.75;;;0.78;95.38
2188;BME280;1100;52.014;8.540;2023-01-27T02:42:34;100863.50;;;0.80;95.43
2188;BME280;1100;52.014;8.540;2023-01-27T02:45:00;100867.84;;;0.81;95.41
2188;BME280;1100;52.014;8.540;2023-01-27T02:47:25;100869.44;;;0.82;95.65
2188;BME280;1100;52.014;8.540;2023-01-27T02:49:50;100863.50;;;0.80;95.47
2188;BME280;1100;52.014;8.540;2023-01-27T02:52:18;100863.97;;;0.82;95.54
2188;BME280;1100;52.014;8.540;2023-01-27T02:54:44;100871.81;;;0.84;95.58
2188;BME280;1100;52.014;8.540;2023-01-27T02:57:09;100868.28;;;0.83;95.56
2188;BME280;1100;52.014;8.540;2023-01-27T02:59:34;100878.19;;;0.88;95.50
2188;BME280;1100;52.014;8.540;2023-01-27T03:02:00;100875.09;;;0.90;95.57
2188;BME280;1100;52.014;8.540;2023-01-27T03:04:25;100872.00;;;0.91;95.68
2188;BME280;1100;52.014;8.540;2023-01-27T03:06:50;100875.09;;;0.90;95.62
2188;BME280;1100;52.014;8.540;2023-01-27T03:09:19;100879.78;;;0.89;95.49
2188;BME280;1100;52.014;8.540;2023-01-27T03:11:47;100881.00;;;0.92;95.80
2188;BME280;1100;52.014;8.540;2023-01-27T03:14:31;100877.56;;;0.95;95.48
2188;BME280;1100;52.014;8.540;2023-01-27T03:17:15;100886.22;;;0.97;95.77
2188;BME280;1100;52.014;8.540;2023-01-27T03:19:59;100879.16;;;0.96;95.50
2188;BME280;1100;52.014;8.540;2023-01-27T03:22:24;100884.63;;;0.96;95.58
2188;BME280;1100;52.014;8.540;2023-01-27T03:24:50;100878.72;;;0.94;95.53
2188;BME280;1100;52.014;8.540;2023-01-27T03:27:16;100887.38;;;0.96;95.66
2188;BME280;1100;52.014;8.540;2023-01-27T03:29:42;100880.75;;;0.97;95.52
2188;BME280;1100;52.014;8.540;2023-01-27T03:32:19;100888.16;;;0.96;95.82
2188;BME280;1100;52.014;8.540;2023-01-27T03:34:45;100880.41;;;0.98;95.52
2188;BME280;1100;52.014;8.540;2023-01-27T03:37:10;100881.53;;;0.97;95.57
2188;BME280;1100;52.014;8.540;2023-01-27T03:39:54;100883.22;;;1.02;95.76
2188;BME280;1100;52.014;8.540;2023-01-27T03:42:38;100879.69;;;1.02;95.49
2188;BME280;1100;52.014;8.540;2023-01-27T03:45:22;100888.69;;;1.02;95.59
2188;BME280;1100;52.014;8.540;2023-01-27T03:48:06;100886.41;;;1.04;95.82
2188;BME280;1100;52.014;8.540;2023-01-27T03:50:31;100892.31;;;1.06;95.58
2188;BME280;1100;52.014;8.540;2023-01-27T03:53:06;100890.38;;;1.07;95.64
2188;BME280;1100;52.014;8.540;2023-01-27T03:55:33;100889.59;;;1.06;95.64
2188;BME280;1100;52.014;8.540;2023-01-27T03:57:58;100891.16;;;1.07;95.60
2188;BME280;1100;52.014;8.540;2023-01-27T04:00:43;100897.81;;;1.06;95.76
2188;BME280;1100;52.014;8.540;2023-01-27T04:03:08;100895.47;;;1.08;95.75
2188;BME280;1100;52.014;8.540;2023-01-27T04:05:52;100903.69;;;1.08;95.67
2188;BME280;1100;52.014;8.540;2023-01-27T04:08:37;100899.03;;;1.09;95.65
2188;BME280;1100;52.014;8.540;2023-01-27T04:11:03;100894.00;;;1.11;95.57
2188;BME280;1100;52.014;8.540;2023-01-27T04:13:48;100890.47;;;1.10;95.62
2188;BME280;1100;52.014;8.540;2023-01-27T04:16:14;100897.50;;;1.11;95.79
2188;BME280;1100;52.014;8.540;2023-01-27T04:18:41;100896.66;;;1.07;95.62
2188;BME280;1100;52.014;8.540;2023-01-27T04:21:06;100895.84;;;1.07;95.86
2188;BME280;1100;52.014;8.540;2023-01-27T04:23:31;100897.81;;;1.06;95.63
2188;BME280;1100;52.014;8.540;2023-01-27T04:25:57;100905.22;;;1.06;95.82
2188;BME280;1100;52.014;8.540;2023-01-27T04:28:24;100903.69;;;1.08;95.99
2188;BME280;1100;52.014;8.540;2023-01-27T04:30:49;100904.16;;;1.10;95.70
2188;BME280;1100;52.014;8.540;2023-01-27T04:33:15;100906.19;;;1.14;95.85
2188;BME280;1100;52.014;8.540;2023-01-27T04:35:43;100910.16;;;1.16;95.59
2188;BME280;1100;52.014;8.540;2023-01-27T04:38:10;100911.31;;;1.15;95.83
2188;BME280;1100;52.014;8.540;2023-01-27T04:40:35;100910.84;;;1.13;95.80
2188;BME280;1100;52.014;8.540;2023-01-27T04:43:00;100910.09;;;1.13;95.84
2188;BME280;1100;52.014;8.540;2023-01-27T04:45:26;100918.72;;;1.15;95.83
2188;BME280;1100;52.014;8.540;2023-01-27T04:47:51;100917.13;;;1.14;96.06
2188;BME280;1100;52.014;8.540;2023-01-27T04:50:16;100925.00;;;1.15;95.89
2188;BME280;1100;52.014;8.540;2023-01-27T04:52:42;100927.38;;;1.17;95.74
2188;BME280;1100;52.014;8.540;2023-01-27T04:55:09;100928.97;;;1.18;96.05
2188;BME280;1100;52.014;8.540;2023-01-27T04:57:34;100930.56;;;1.19;95.64
2188;BME280;1100;52.014;8.540;2023-01-27T05:00:00;100934.91;;;1.20;95.61
2188;BME280;1100;52.014;8.540;2023-01-27T05:02:25;100932.16;;;1.20;95.95
2188;BME280;1100;52.014;8.540;2023-01-27T05:04:50;100940.38;;;1.20;95.84
2188;BME280;1100;52.014;8.540;2023-01-27T05:07:16;100934.44;;;1.18;95.59
2188;BME280;1100;52.014;8.540;2023-01-27T05:09:41;100933.31;;;1.19;95.63
2188;BME280;1100;52.014;8.540;2023-01-27T05:12:06;100941.53;;;1.19;95.62
2188;BME280;1100;52.014;8.540;2023-01-27T05:14:32;100945.84;;;1.20;95.68
2188;BME280;1100;52.014;8.540;2023-01-27T05:16:57;100938.44;;;1.20;95.90
2188;BME280;1100;52.014;8.540;2023-01-27T05:19:22;100933.72;;;1.21;95.93
2188;BME280;1100;52.014;8.540;2023-01-27T05:21:47;100939.22;;;1.21;95.79
2188;BME280;1100;52.014;8.540;2023-01-27T05:24:13;100940.13;;;1.25;95.75
2188;BME280;1100;52.014;8.540;2023-01-27T05:26:38;100943.22;;;1.23;95.88
2188;BME280;1100;52.014;8.540;2023-01-27T05:29:04;100941.25;;;1.24;95.86
2188;BME280;1100;52.014;8.540;2023-01-27T05:31:30;100939.31;;;1.24;95.78
2188;BME280;1100;52.014;8.540;2023-01-27T05:33:58;100940.13;;;1.25;95.70
2188;BME280;1100;52.014;8.540;2023-01-27T05:36:24;100942.06;;;1.24;95.78
2188;BME280;1100;52.014;8.540;2023-01-27T05:38:50;100944.44;;;1.26;95.68
2188;BME280;1100;52.014;8.540;2023-01-27T05:41:17;100944.09;;;1.28;95.90
2188;BME280;1100;52.014;8.540;2023-01-27T05:43:44;100952.41;;;1.31;95.80
2188;BME280;1100;52.014;8.540;2023-01-27T05:46:18;100950.44;;;1.32;95.95
2188;BME280;1100;52.014;8.540;2023-01-27T05:48:49;100950.44;;;1.32;95.74
2188;BME280;1100;52.014;8.540;2023-01-27T05:51:17;100956.72;;;1.32;95.77
2188;BME280;1100;52.014;8.540;2023-01-27T05:53:44;100956.38;;;1.34;95.93
2188;BME280;1100;52.014;8.540;2023-01-27T05:56:12;100955.59;;;1.33;95.98
2188;BME280;1100;52.014;8.540;2023-01-27T05:58:38;100963.09;;;1.36;96.01
2188;BME280;1100;52.014;8.540;2023-01-27T06:01:19;100956.81;;;1.36;95.88
2188;BME280;1100;52.014;8.540;2023-01-27T06:03:45;100960.72;;;1.35;95.93
2188;BME280;1100;52.014;8.540;2023-01-27T06:06:12;100961.50;;;1.35;96.00
2188;BME280;1100;52.014;8.540;2023-01-27T06:08:38;100968.59;;;1.36;96.02
2188;BME280;1100;52.014;8.540;2023-01-27T06:11:05;100966.19;;;1.35;96.05
2188;BME280;1100;52.014;8.540;2023-01-27T06:13:31;100970.16;;;1.38;96.09
2188;BME280;1100;52.014;8.540;2023-01-27T06:16:00;100969.00;;;1.39;95.97
2188;BME280;1100;52.014;8.540;2023-01-27T06:18:26;100969.81;;;1.39;96.07
2188;BME280;1100;52.014;8.540;2023-01-27T06:20:51;100985.09;;;1.40;95.88
2188;BME280;1100;52.014;8.540;2023-01-27T06:23:17;100982.34;;;1.40;96.03
2188;BME280;1100;52.014;8.540;2023-01-27T06:25:47;100989.09;;;1.43;95.95
2188;BME280;1100;52.014;8.540;2023-01-27T06:28:13;100982.44;;;1.44;95.66
2188;BME280;1100;52.014;8.540;2023-01-27T06:30:40;100981.63;;;1.43;96.11
2188;BME280;1100;52.014;8.540;2023-01-27T06:33:06;100989.50;;;1.45;96.12
2188;BME280;1100;52.014;8.540;2023-01-27T06:35:33;100995.00;;;1.45;95.76
2188;BME280;1100;52.014;8.540;2023-01-27T06:37:59;100992.25;;;1.45;96.14
2188;BME280;1100;52.014;8.540;2023-01-27T06:40:26;100995.78;;;1.45;96.05
2188;BME280;1100;52.014;8.540;2023-01-27T06:42:52;100997.72;;;1.45;96.08
2188;BME280;1100;52.014;8.540;2023-01-27T06:45:17;100992.69;;;1.47;96.17
2188;BME280;1100;52.014;8.540;2023-01-27T06:47:43;100991.53;;;1.48;95.83
2188;BME280;1100;52.014;8.540;2023-01-27T06:50:09;100995.88;;;1.49;95.93
2188;BME280;1100;52.014;8.540;2023-01-27T06:52:35;101001.78;;;1.51;95.93
2188;BME280;1100;52.014;8.540;2023-01-27T06:55:01;101001.44;;;1.53;96.13
2188;BME280;1100;52.014;8.540;2023-01-27T06:57:26;101002.59;;;1.52;96.01
2188;BME280;1100;52.014;8.540;2023-01-27T06:59:52;101008.53;;;1.54;95.83
2188;BME280;1100;52.014;8.540;2023-01-27T07:02:17;101004.19;;;1.53;96.02
2188;BME280;1100;52.014;8.540;2023-01-27T07:04:42;101010.00;;;1.51;95.78
2188;BME280;1100;52.014;8.540;2023-01-27T07:07:08;101006.13;;;1.52;96.02
2188;BME280;1100;52.014;8.540;2023-01-27T07:09:33;101010.81;;;1.52;95.78
2188;BME280;1100;52.014;8.540;2023-01-27T07:11:59;101019.38;;;1.50;95.96
2188;BME280;1100;52.014;8.540;2023-01-27T07:14:24;101015.06;;;1.49;96.03
2188;BME280;1100;52.014;8.540;2023-01-27T07:16:49;101019.38;;;1.50;96.06
2188;BME280;1100;52.014;8.540;2023-01-27T07:19:15;101024.53;;;1.52;96.11
2188;BME280;1100;52.014;8.540;2023-01-27T07:21:41;101022.59;;;1.52;95.75
2188;BME280;1100;52.014;8.540;2023-01-27T07:24:07;101028.84;;;1.53;95.72
2188;BME280;1100;52.014;8.540;2023-01-27T07:26:32;101027.25;;;1.52;95.86
2188;BME280;1100;52.014;8.540;2023-01-27T07:28:58;101031.59;;;1.53;95.87
2188;BME280;1100;52.014;8.540;2023-01-27T07:31:26;101030.09;;;1.55;96.28
2188;BME280;1100;52.014;8.540;2023-01-27T07:33:52;101039.44;;;1.54;95.83
2188;BME280;1100;52.014;8.540;2023-01-27T07:36:20;101033.97;;;1.54;96.05
2188;BME280;1100;52.014;8.540;2023-01-27T07:38:49;101029.28;;;1.55;96.17
2188;BME280;1100;52.014;8.540;2023-01-27T07:41:15;101033.25;;;1.57;95.89
2188;BME280;1100;52.014;8.540;2023-01-27T07:43:41;101038.75;;;1.57;95.70
2188;BME280;1100;52.014;8.540;2023-01-27T07:46:07;101034.88;;;1.58;95.94
2188;BME280;1100;52.014;8.540;2023-01-27T07:48:33;101031.78;;;1.60;96.03
2188;BME280;1100;52.014;8.540;2023-01-27T07:50:58;101041.13;;;1.59;95.77
2188;BME280;1100;52.014;8.540;2023-01-27T07:53:24;101048.22;;;1.60;96.09
2188;BME280;1100;52.014;8.540;2023-01-27T07:55:49;101044.31;;;1.61;96.18
2188;BME280;1100;52.014;8.540;2023-01-27T07:58:15;101050.59;;;1.61;95.85
2188;BME280;1100;52.014;8.540;2023-01-27T08:00:41;101046.34;;;1.64;96.19
2188;BME280;1100;52.014;8.540;2023-01-27T08:03:06;101057.41;;;1.68;96.23
2188;BME280;1100;52.014;8.540;2023-01-27T08:05:33;101059.44;;;1.71;96.35
2188;BME280;1100;52.014;8.540;2023-01-27T08:07:58;101061.03;;;1.72;96.07
2188;BME280;1100;52.014;8.540;2023-01-27T08:10:28;101071.66;;;1.73;96.23
2188;BME280;1100;52.014;8.540;2023-01-27T08:12:53;101072.81;;;1.72;96.03
2188;BME280;1100;52.014;8.540;2023-01-27T08:15:18;101069.25;;;1.72;95.66
2188;BME280;1100;52.014;8.540;2023-01-27T08:17:52;101067.69;;;1.71;95.90
2188;BME280;1100;52.014;8.540;2023-01-27T08:20:20;101071.19;;;1.71;95.99
2188;BME280;1100;52.014;8.540;2023-01-27T08:22:46;101074.38;;;1.73;96.24
2188;BME280;1100;52.014;8.540;2023-01-27T08:25:11;101075.53;;;1.72;95.98
2188;BME280;1100;52.014;8.540;2023-01-27T08:27:36;101078.28;;;1.72;96.28
2188;BME280;1100;52.014;8.540;2023-01-27T08:30:02;101082.97;;;1.72;95.93
2188;BME280;1100;52.014;8.540;2023-01-27T08:32:27;101086.16;;;1.74;96.29
2188;BME280;1100;52.014;8.540;2023-01-27T08:34:53;101087.75;;;1.75;96.05
2188;BME280;1100;52.014;8.540;2023-01-27T08:37:19;101083.84;;;1.76;95.88
2188;BME280;1100;52.014;8.540;2023-01-27T08:39:45;101087.75;;;1.75;95.96
2188;BME280;1100;52.014;8.540;2023-01-27T08:42:10;101090.94;;;1.77;96.34
2188;BME280;1100;52.014;8.540;2023-01-27T08:44:35;101082.34;;;1.79;96.06
2188;BME280;1100;52.014;8.540;2023-01-27T08:47:00;101091.09;;;1.84;95.95
2188;BME280;1100;52.014;8.540;2023-01-27T08:49:26;101097.47;;;1.89;95.90
2188;BME280;1100;52.014;8.540;2023-01-27T08:51:51;101106.94;;;1.91;96.15
2188;BME280;1100;52.014;8.540;2023-01-27T08:54:16;101103.75;;;1.89;96.19
2188;BME280;1100;52.014;8.540;2023-01-27T08:56:42;101103.28;;;1.87;96.11
2188;BME280;1100;52.014;8.540;2023-01-27T08:59:07;101112.31;;;1.88;95.93
2188;BME280;1100;52.014;8.540;2023-01-27T09:01:32;101118.97;;;1.86;95.98
2188;BME280;1100;52.014;8.540;2023-01-27T09:03:57;101122.41;;;1.83;95.71
2188;BME280;1100;52.014;8.540;2023-01-27T09:06:23;101126.56;;;1.77;95.70
2188;BME280;1100;52.014;8.540;2023-01-27T09:08:49;101119.75;;;1.71;95.46
2188;BME280;1100;52.014;8.540;2023-01-27T09:11:33;101129.47;;;1.68;95.48
2188;BME280;1100;52.014;8.540;2023-01-27T09:13:58;101128.94;;;1.63;95.95
2188;BME280;1100;52.014;8.540;2023-01-27T09:16:24;101133.25;;;1.64;95.79
2188;BME280;1100;52.014;8.540;2023-01-27T09:18:50;101134.06;;;1.64;95.80
2188;BME280;1100;52.014;8.540;2023-01-27T09:21:16;101146.97;;;1.64;95.82
2188;BME280;1100;52.014;8.540;2023-01-27T09:23:41;101143.00;;;1.61;95.86
2188;BME280;1100;52.014;8.540;2023-01-27T09:26:06;101146.91;;;1.60;95.80
2188;BME280;1100;52.014;8.540;2023-01-27T09:28:32;101151.56;;;1.59;95.97
2188;BME280;1100;52.014;8.540;2023-01-27T09:30:58;101153.97;;;1.61;95.92
2188;BME280;1100;52.014;8.540;2023-01-27T09:33:23;101143.44;;;1.63;95.67
2188;BME280;1100;52.014;8.540;2023-01-27T09:36:00;101147.94;;;1.71;96.07
2188;BME280;1100;52.014;8.540;2023-01-27T09:38:29;101148.16;;;1.79;95.83
2188;BME280;1100;52.014;8.540;2023-01-27T09:41:21;101142.03;;;1.85;95.74
2188;BME280;1100;52.014;8.540;2023-01-27T09:44:21;101145.75;;;1.93;95.91
2188;BME280;1100;52.014;8.540;2023-01-27T10:01:24;101159.13;;;2.11;95.52
2188;BME280;1100;52.014;8.540;2023-01-27T10:12:58;101149.50;;;1.85;95.45
2188;BME280;1100;52.014;8.540;2023-01-27T10:27:00;101150.63;;;1.84;95.82
2188;BME280;1100;52.014;8.540;2023-01-27T10:30:24;101158.50;;;1.85;95.92
2188;BME280;1100;52.014;8.540;2023-01-27T10:32:27;101155.41;;;1.87;95.82
2188;BME280;1100;52.014;8.540;2023-01-27T10:35:00;101151.41;;;1.84;95.99
2188;BME280;1100;52.014;8.540;2023-01-27T10:45:44;101159.28;;;1.86;95.66
2188;BME280;1100;52.014;8.540;2023-01-27T10:48:26;101157.34;;;1.86;95.64
2188;BME280;1100;52.014;8.540;2023-01-27T10:51:00;101162.13;;;1.90;95.70
2188;BME280;1100;52.014;8.540;2023-01-27T10:53:37;101163.00;;;1.94;95.97
2188;BME280;1100;52.014;8.540;2023-01-27T10:59:27;101167.81;;;2.13;95.70
2188;BME280;1100;52.014;8.540;2023-01-27T11:02:04;101166.03;;;2.21;95.73
2188;BME280;1100;52.014;8.540;2023-01-27T11:04:40;101165.13;;;2.33;95.47
2188;BME280;1100;52.014;8.540;2023-01-27T11:07:14;101165.22;;;2.36;95.21
2188;BME280;1100;52.014;8.540;2023-01-27T11:09:47;101160.59;;;2.41;95.65
2188;BME280;1100;52.014;8.540;2023-01-27T11:12:14;101160.59;;;2.41;95.22
2188;BME280;1100;52.014;8.540;2023-01-27T11:14:48;101163.72;;;2.39;95.10
2188;BME280;1100;52.014;8.540;2023-01-27T11:17:24;101158.13;;;2.35;95.23
2188;BME280;1100;52.014;8.540;2023-01-27T11:20:16;101168.38;;;2.39;95.70
2188;BME280;1100;52.014;8.540;2023-01-27T11:22:53;101169.09;;;2.35;95.64
2188;BME280;1100;52.014;8.540;2023-01-27T11:26:01;101168.75;;;2.37;95.73
2188;BME280;1100;52.014;8.540;2023-01-27T11:34:41;101167.50;;;2.34;95.25
2188;BME280;1100;52.014;8.540;2023-01-27T11:40:01;101163.44;;;2.28;95.58
2188;BME280;1100;52.014;8.540;2023-01-27T11:42:32;101167.00;;;2.29;95.55
2188;BME280;1100;52.014;8.540;2023-01-27T11:44:59;101166.47;;;2.23;95.21
2188;BME280;1100;52.014;8.540;2023-01-27T11:47:31;101162.84;;;2.19;95.43
2188;BME280;1100;52.014;8.540;2023-01-27T11:49:59;101158.50;;;2.18;95.37
2188;BME280;1100;52.014;8.540;2023-01-27T11:52:26;101151.41;;;2.17;95.30
2188;BME280;1100;52.014;8.540;2023-01-27T11:55:17;101154.59;;;2.19;95.56
2188;BME280;1100;52.014;8.540;2023-01-27T11:58:04;101151.50;;;2.20;95.95
2188;BME280;1100;52.014;8.540;2023-01-27T12:00:44;101153.91;;;2.22;95.61
2188;BME280;1100;52.014;8.540;2023-01-27T12:05:47;101153.91;;;2.22;95.37
2188;BME280;1100;52.014;8.540;2023-01-27T12:08:39;101156.19;;;2.20;95.55
2188;BME280;1100;52.014;8.540;2023-01-27T12:11:26;101156.47;;;2.15;95.30
2188;BME280;1100;52.014;8.540;2023-01-27T12:14:00;101152.06;;;2.10;95.67
2188;BME280;1100;52.014;8.540;2023-01-27T12:16:46;101154.09;;;2.13;95.43
2188;BME280;1100;52.014;8.540;2023-01-27T12:19:28;101147.78;;;2.13;95.33
2188;BME280;1100;52.014;8.540;2023-01-27T12:22:00;101142.31;;;2.13;95.74
2188;BME280;1100;52.014;8.540;2023-01-27T12:24:29;101147.91;;;2.16;95.47
2188;BME280;1100;52.014;8.540;2023-01-27T12:26:56;101144.00;;;2.17;95.56
2188;BME280;1100;52.014;8.540;2023-01-27T12:29:29;101149.13;;;2.19;95.75
2188;BME280;1100;52.014;8.540;2023-01-27T12:32:00;101147.25;;;2.23;95.59
2188;BME280;1100;52.014;8.540;2023-01-27T12:34:32;101143.78;;;2.26;95.76
2188;BME280;1100;52.014;8.540;2023-01-27T12:36:59;101135.91;;;2.24;95.74
2188;BME280;1100;52.014;8.540;2023-01-27T12:41:53;101137.53;;;2.26;95.52
2188;BME280;1100;52.014;8.540;2023-01-27T12:44:19;101133.63;;;2.27;95.53
2188;BME280;1100;52.014;8.540;2023-01-27T12:47:18;101140.78;;;2.31;95.76
2188;BME280;1100;52.014;8.540;2023-01-27T12:49:45;101136.97;;;2.36;95.45
2188;BME280;1100;52.014;8.540;2023-01-27T12:52:17;101127.41;;;2.46;95.76
2188;BME280;1100;52.014;8.540;2023-01-27T12:54:43;101133.03;;;2.53;95.84
2188;BME280;1100;52.014;8.540;2023-01-27T12:57:14;101132.69;;;2.55;95.54
2188;BME280;1100;52.014;8.540;2023-01-27T12:59:53;101123.22;;;2.52;95.60
2188;BME280;1100;52.014;8.540;2023-01-27T13:02:25;101130.16;;;2.46;95.22
2188;BME280;1100;52.014;8.540;2023-01-27T13:05:00;101124.78;;;2.33;95.05
2188;BME280;1100;52.014;8.540;2023-01-27T13:07:29;101123.47;;;2.27;95.51
2188;BME280;1100;52.014;8.540;2023-01-27T13:09:59;101119.75;;;2.19;95.26
2188;BME280;1100;52.014;8.540;2023-01-27T13:12:27;101115.69;;;2.13;95.45
2188;BME280;1100;52.014;8.540;2023-01-27T13:14:55;101119.50;;;2.08;95.35
2188;BME280;1100;52.014;8.540;2023-01-27T13:17:43;101122.94;;;2.05;95.42
2188;BME280;1100;52.014;8.540;2023-01-27T13:20:23;101126.91;;;2.08;95.68
2188;BME280;1100;52.014;8.540;2023-01-27T13:28:30;101121.59;;;2.15;95.53
2188;BME280;1100;52.014;8.540;2023-01-27T13:31:02;101126.31;;;2.15;95.40
2188;BME280;1100;52.014;8.540;2023-01-27T13:33:35;101127.53;;;2.17;95.53
2188;BME280;1100;52.014;8.540;2023-01-27T13:36:19;101127.16;;;2.19;95.88
2188;BME280;1100;52.014;8.540;2023-01-27T13:39:15;101138.16;;;2.19;95.65
2188;BME280;1100;52.014;8.540;2023-01-27T13:41:47;101139.22;;;2.14;95.52
2188;BME280;1100;52.014;8.540;2023-01-27T13:44:38;101149.31;;;2.10;95.48
2188;BME280;1100;52.014;8.540;2023-01-27T13:47:13;101138.25;;;2.06;95.77
2188;BME280;1100;52.014;8.540;2023-01-27T13:49:43;101143.63;;;2.03;95.35
2188;BME280;1100;52.014;8.540;2023-01-27T13:52:11;101147.88;;;2.00;95.27
2188;BME280;1100;52.014;8.540;2023-01-27T13:54:37;101149.47;;;2.01;95.58
2188;BME280;1100;52.014;8.540;2023-01-27T13:57:20;101147.53;;;2.02;95.42
2188;BME280;1100;52.014;8.540;2023-01-27T14:02:28;101146.31;;;1.99;95.40
2188;BME280;1100;52.014;8.540;2023-01-27T14:13:13;101155.41;;;1.87;95.51
2188;BME280;1100;52.014;8.540;2023-01-27T14:16:11;101145.94;;;1.84;95.37
2188;BME280;1100;52.014;8.540;2023-01-27T14:18:50;101150.63;;;1.84;95.26
2188;BME280;1100;52.014;8.540;2023-01-27T14:21:38;101150.19;;;1.82;95.51
2188;BME280;1100;52.014;8.540;2023-01-27T14:26:52;101158.84;;;1.84;95.47
2188;BME280;1100;52.014;8.540;2023-01-27T14:29:45;101158.50;;;1.85;95.57
2188;BME280;1100;52.014;8.540;2023-01-27T14:37:50;101163.91;;;1.82;95.14
2188;BME280;1100;52.014;8.540;2023-01-27T14:40:28;101174.06;;;1.81;95.57
2188;BME280;1100;52.014;8.540;2023-01-27T14:45:45;101154.78;;;1.78;95.36
2188;BME280;1100;52.014;8.540;2023-01-27T14:48:38;101157.44;;;1.74;95.29
2188;BME280;1100;52.014;8.540;2023-01-27T14:57:24;101171.38;;;1.69;95.33
2188;BME280;1100;52.014;8.540;2023-01-27T15:05:53;101182.09;;;1.74;95.58
2188;BME280;1100;52.014;8.540;2023-01-27T15:16:12;101186.09;;;1.77;95.43
2188;BME280;1100;52.014;8.540;2023-01-27T15:22:04;101198.44;;;1.70;95.38
2188;BME280;1100;52.014;8.540;2023-01-27T15:24:55;101199.50;;;1.66;95.45
2188;BME280;1100;52.014;8.540;2023-01-27T15:27:22;101195.19;;;1.65;95.30
2188;BME280;1100;52.014;8.540;2023-01-27T15:29:48;101207.28;;;1.64;95.33
2188;BME280;1100;52.014;8.540;2023-01-27T15:34:39;101204.81;;;1.58;95.44
2188;BME280;1100;52.014;8.540;2023-01-27T15:37:21;101210.28;;;1.58;95.46